sensor_id;sensor_type;location;lat;lon;timestamp;P1;durP1;ratioP1;P2;durP2;ratioP2
9108;SDS011;4590;51.462;6.692;2022-11-23T00:01:47;5.53;;;1.53;;
9108;SDS011;4590;51.462;6.692;2022-11-23T00:04:13;3.30;;;1.30;;
9108;SDS011;4590;51.462;6.692;2022-11-23T00:06:38;2.63;;;1.10;;
9108;SDS011;4590;51.462;6.692;2022-11-23T00:09:04;3.45;;;1.25;;
9108;SDS011;4590;51.462;6.692;2022-11-23T00:11:30;2.87;;;1.10;;
9108;SDS011;4590;51.462;6.692;2022-11-23T00:13:58;2.47;;;1.20;;
9108;SDS011;4590;51.462;6.692;2022-11-23T00:16:24;2.57;;;1.17;;
9108;SDS011;4590;51.462;6.692;2022-11-23T00:18:55;5.00;;;1.75;;
9108;SDS011;4590;51.462;6.692;2022-11-23T00:21:22;5.47;;;1.42;;
9108;SDS011;4590;51.462;6.692;2022-11-23T00:23:49;2.92;;;1.20;;
9108;SDS011;4590;51.462;6.692;2022-11-23T00:26:15;3.05;;;0.93;;
9108;SDS011;4590;51.462;6.692;2022-11-23T00:28:41;3.78;;;1.40;;
9108;SDS011;4590;51.462;6.692;2022-11-23T00:31:08;3.28;;;1.70;;
9108;SDS011;4590;51.462;6.692;2022-11-23T00:33:35;5.72;;;1.30;;
9108;SDS011;4590;51.462;6.692;2022-11-23T00:36:02;6.60;;;1.45;;
9108;SDS011;4590;51.462;6.692;2022-11-23T00:38:29;5.03;;;1.38;;
9108;SDS011;4590;51.462;6.692;2022-11-23T00:41:00;4.33;;;1.37;;
9108;SDS011;4590;51.462;6.692;2022-11-23T00:43:27;5.78;;;1.65;;
9108;SDS011;4590;51.462;6.692;2022-11-23T00:48:45;5.63;;;1.83;;
9108;SDS011;4590;51.462;6.692;2022-11-23T00:51:13;2.90;;;1.25;;
9108;SDS011;4590;51.462;6.692;2022-11-23T00:53:40;3.72;;;1.50;;
9108;SDS011;4590;51.462;6.692;2022-11-23T00:56:06;2.97;;;1.10;;
9108;SDS011;4590;51.462;6.692;2022-11-23T00:58:32;5.40;;;1.48;;
9108;SDS011;4590;51.462;6.692;2022-11-23T01:01:06;2.47;;;0.98;;
9108;SDS011;4590;51.462;6.692;2022-11-23T01:03:34;6.32;;;1.17;;
9108;SDS011;4590;51.462;6.692;2022-11-23T01:06:04;3.47;;;0.98;;
9108;SDS011;4590;51.462;6.692;2022-11-23T01:08:31;6.70;;;1.38;;
9108;SDS011;4590;51.462;6.692;2022-11-23T01:11:00;4.95;;;0.90;;
9108;SDS011;4590;51.462;6.692;2022-11-23T01:13:27;4.28;;;1.13;;
9108;SDS011;4590;51.462;6.692;2022-11-23T01:15:53;3.83;;;1.20;;
9108;SDS011;4590;51.462;6.692;2022-11-23T01:18:19;5.10;;;1.43;;
9108;SDS011;4590;51.462;6.692;2022-11-23T01:20:44;4.30;;;0.90;;
9108;SDS011;4590;51.462;6.692;2022-11-23T01:23:10;3.17;;;1.20;;
9108;SDS011;4590;51.462;6.692;2022-11-23T01:25:35;5.13;;;1.30;;
9108;SDS011;4590;51.462;6.692;2022-11-23T01:28:01;5.07;;;1.10;;
9108;SDS011;4590;51.462;6.692;2022-11-23T01:30:26;6.57;;;1.30;;
9108;SDS011;4590;51.462;6.692;2022-11-23T01:32:52;5.50;;;1.50;;
9108;SDS011;4590;51.462;6.692;2022-11-23T01:35:17;5.87;;;1.57;;
9108;SDS011;4590;51.462;6.692;2022-11-23T01:37:42;5.03;;;1.23;;
9108;SDS011;4590;51.462;6.692;2022-11-23T01:40:07;2.57;;;1.00;;
9108;SDS011;4590;51.462;6.692;2022-11-23T01:42:48;7.07;;;1.85;;
9108;SDS011;4590;51.462;6.692;2022-11-23T01:45:33;4.60;;;1.27;;
9108;SDS011;4590;51.462;6.692;2022-11-23T01:48:05;5.47;;;1.10;;
9108;SDS011;4590;51.462;6.692;2022-11-23T01:50:40;6.30;;;1.27;;
9108;SDS011;4590;51.462;6.692;2022-11-23T01:53:06;5.05;;;1.20;;
9108;SDS011;4590;51.462;6.692;2022-11-23T01:55:32;3.60;;;1.00;;
9108;SDS011;4590;51.462;6.692;2022-11-23T02:00:24;3.17;;;1.40;;
9108;SDS011;4590;51.462;6.692;2022-11-23T02:02:54;5.50;;;1.33;;
9108;SDS011;4590;51.462;6.692;2022-11-23T02:05:24;5.95;;;1.30;;
9108;SDS011;4590;51.462;6.692;2022-11-23T02:07:54;3.72;;;1.15;;
9108;SDS011;4590;51.462;6.692;2022-11-23T02:10:21;3.42;;;1.10;;
9108;SDS011;4590;51.462;6.692;2022-11-23T02:12:47;6.97;;;1.90;;
9108;SDS011;4590;51.462;6.692;2022-11-23T02:15:13;4.73;;;1.10;;
9108;SDS011;4590;51.462;6.692;2022-11-23T02:17:38;5.00;;;1.10;;
9108;SDS011;4590;51.462;6.692;2022-11-23T02:25:18;4.32;;;1.42;;
9108;SDS011;4590;51.462;6.692;2022-11-23T02:27:47;5.13;;;1.05;;
9108;SDS011;4590;51.462;6.692;2022-11-23T02:30:13;6.07;;;1.17;;
9108;SDS011;4590;51.462;6.692;2022-11-23T02:32:38;4.80;;;1.10;;
9108;SDS011;4590;51.462;6.692;2022-11-23T02:35:04;4.63;;;1.33;;
9108;SDS011;4590;51.462;6.692;2022-11-23T02:37:29;5.07;;;1.17;;
9108;SDS011;4590;51.462;6.692;2022-11-23T02:39:54;7.63;;;1.40;;
9108;SDS011;4590;51.462;6.692;2022-11-23T02:42:23;6.97;;;1.30;;
9108;SDS011;4590;51.462;6.692;2022-11-23T02:45:11;5.13;;;1.25;;
9108;SDS011;4590;51.462;6.692;2022-11-23T02:47:45;6.07;;;1.45;;
9108;SDS011;4590;51.462;6.692;2022-11-23T02:50:13;2.85;;;1.00;;
9108;SDS011;4590;51.462;6.692;2022-11-23T02:52:38;6.73;;;1.43;;
9108;SDS011;4590;51.462;6.692;2022-11-23T02:55:03;4.37;;;0.93;;
9108;SDS011;4590;51.462;6.692;2022-11-23T02:57:29;4.07;;;1.10;;
9108;SDS011;4590;51.462;6.692;2022-11-23T02:59:54;4.73;;;1.20;;
9108;SDS011;4590;51.462;6.692;2022-11-23T03:02:19;5.33;;;1.07;;
9108;SDS011;4590;51.462;6.692;2022-11-23T03:04:45;4.97;;;1.30;;
9108;SDS011;4590;51.462;6.692;2022-11-23T03:07:10;5.63;;;1.27;;
9108;SDS011;4590;51.462;6.692;2022-11-23T03:09:35;3.07;;;0.93;;
9108;SDS011;4590;51.462;6.692;2022-11-23T03:12:00;5.63;;;1.40;;
9108;SDS011;4590;51.462;6.692;2022-11-23T03:14:26;4.30;;;1.20;;
9108;SDS011;4590;51.462;6.692;2022-11-23T03:16:51;3.37;;;1.10;;
9108;SDS011;4590;51.462;6.692;2022-11-23T03:19:16;8.67;;;1.07;;
9108;SDS011;4590;51.462;6.692;2022-11-23T03:21:41;5.47;;;1.53;;
9108;SDS011;4590;51.462;6.692;2022-11-23T03:24:07;5.47;;;1.40;;
9108;SDS011;4590;51.462;6.692;2022-11-23T03:26:32;3.67;;;1.30;;
9108;SDS011;4590;51.462;6.692;2022-11-23T03:28:57;6.57;;;1.50;;
9108;SDS011;4590;51.462;6.692;2022-11-23T03:31:23;9.90;;;1.50;;
9108;SDS011;4590;51.462;6.692;2022-11-23T03:33:48;6.57;;;1.60;;
9108;SDS011;4590;51.462;6.692;2022-11-23T03:36:13;8.43;;;1.23;;
9108;SDS011;4590;51.462;6.692;2022-11-23T03:38:39;4.23;;;1.17;;
9108;SDS011;4590;51.462;6.692;2022-11-23T03:41:04;7.10;;;1.90;;
9108;SDS011;4590;51.462;6.692;2022-11-23T03:43:29;7.07;;;1.63;;
9108;SDS011;4590;51.462;6.692;2022-11-23T03:45:54;7.67;;;1.80;;
9108;SDS011;4590;51.462;6.692;2022-11-23T03:48:20;10.57;;;2.70;;
9108;SDS011;4590;51.462;6.692;2022-11-23T03:50:45;7.33;;;2.17;;
9108;SDS011;4590;51.462;6.692;2022-11-23T03:53:10;3.70;;;1.70;;
9108;SDS011;4590;51.462;6.692;2022-11-23T03:55:35;6.30;;;1.60;;
9108;SDS011;4590;51.462;6.692;2022-11-23T03:58:01;8.07;;;1.83;;
9108;SDS011;4590;51.462;6.692;2022-11-23T04:00:27;6.17;;;1.40;;
9108;SDS011;4590;51.462;6.692;2022-11-23T04:02:53;5.53;;;1.92;;
9108;SDS011;4590;51.462;6.692;2022-11-23T04:05:19;5.87;;;1.30;;
9108;SDS011;4590;51.462;6.692;2022-11-23T04:07:48;8.20;;;1.53;;
9108;SDS011;4590;51.462;6.692;2022-11-23T04:10:14;6.78;;;1.58;;
9108;SDS011;4590;51.462;6.692;2022-11-23T04:12:40;7.50;;;1.35;;
9108;SDS011;4590;51.462;6.692;2022-11-23T04:15:06;9.13;;;1.97;;
9108;SDS011;4590;51.462;6.692;2022-11-23T04:17:31;10.43;;;2.13;;
9108;SDS011;4590;51.462;6.692;2022-11-23T04:19:56;5.20;;;1.50;;
9108;SDS011;4590;51.462;6.692;2022-11-23T04:22:22;8.07;;;2.10;;
9108;SDS011;4590;51.462;6.692;2022-11-23T04:24:47;7.80;;;1.93;;
9108;SDS011;4590;51.462;6.692;2022-11-23T04:27:12;4.93;;;1.60;;
9108;SDS011;4590;51.462;6.692;2022-11-23T04:29:37;7.97;;;1.93;;
9108;SDS011;4590;51.462;6.692;2022-11-23T04:32:03;6.50;;;1.43;;
9108;SDS011;4590;51.462;6.692;2022-11-23T04:34:28;6.87;;;1.83;;
9108;SDS011;4590;51.462;6.692;2022-11-23T04:36:53;8.60;;;1.97;;
9108;SDS011;4590;51.462;6.692;2022-11-23T04:39:19;7.50;;;2.10;;
9108;SDS011;4590;51.462;6.692;2022-11-23T04:41:44;8.00;;;1.67;;
9108;SDS011;4590;51.462;6.692;2022-11-23T04:44:09;12.33;;;2.13;;
9108;SDS011;4590;51.462;6.692;2022-11-23T04:46:34;5.13;;;1.63;;
9108;SDS011;4590;51.462;6.692;2022-11-23T04:49:00;5.80;;;1.63;;
9108;SDS011;4590;51.462;6.692;2022-11-23T04:51:25;5.83;;;1.50;;
9108;SDS011;4590;51.462;6.692;2022-11-23T04:53:51;11.10;;;1.87;;
9108;SDS011;4590;51.462;6.692;2022-11-23T04:56:16;7.00;;;2.07;;
9108;SDS011;4590;51.462;6.692;2022-11-23T04:58:41;7.43;;;2.30;;
9108;SDS011;4590;51.462;6.692;2022-11-23T05:01:06;5.33;;;1.57;;
9108;SDS011;4590;51.462;6.692;2022-11-23T05:03:32;10.05;;;1.52;;
9108;SDS011;4590;51.462;6.692;2022-11-23T05:06:01;8.55;;;2.28;;
9108;SDS011;4590;51.462;6.692;2022-11-23T05:08:27;7.65;;;2.17;;
9108;SDS011;4590;51.462;6.692;2022-11-23T05:10:53;7.95;;;2.00;;
9108;SDS011;4590;51.462;6.692;2022-11-23T05:13:19;13.70;;;1.90;;
9108;SDS011;4590;51.462;6.692;2022-11-23T05:15:44;9.67;;;2.57;;
9108;SDS011;4590;51.462;6.692;2022-11-23T05:18:10;5.17;;;2.13;;
9108;SDS011;4590;51.462;6.692;2022-11-23T05:20:35;8.27;;;2.00;;
9108;SDS011;4590;51.462;6.692;2022-11-23T05:23:01;6.60;;;1.90;;
9108;SDS011;4590;51.462;6.692;2022-11-23T05:25:26;8.63;;;1.63;;
9108;SDS011;4590;51.462;6.692;2022-11-23T05:27:52;9.50;;;1.70;;
9108;SDS011;4590;51.462;6.692;2022-11-23T05:30:17;6.37;;;1.50;;
9108;SDS011;4590;51.462;6.692;2022-11-23T05:32:43;4.25;;;1.45;;
9108;SDS011;4590;51.462;6.692;2022-11-23T05:35:09;8.17;;;1.50;;
9108;SDS011;4590;51.462;6.692;2022-11-23T05:37:34;7.73;;;1.90;;
9108;SDS011;4590;51.462;6.692;2022-11-23T05:40:00;8.60;;;2.13;;
9108;SDS011;4590;51.462;6.692;2022-11-23T05:42:25;6.00;;;1.57;;
9108;SDS011;4590;51.462;6.692;2022-11-23T05:44:51;10.40;;;1.73;;
9108;SDS011;4590;51.462;6.692;2022-11-23T05:47:16;10.53;;;1.87;;
9108;SDS011;4590;51.462;6.692;2022-11-23T05:49:41;9.50;;;2.77;;
9108;SDS011;4590;51.462;6.692;2022-11-23T05:52:06;7.67;;;1.50;;
9108;SDS011;4590;51.462;6.692;2022-11-23T05:54:32;4.50;;;1.47;;
9108;SDS011;4590;51.462;6.692;2022-11-23T05:56:57;4.73;;;1.20;;
9108;SDS011;4590;51.462;6.692;2022-11-23T05:59:22;11.00;;;1.40;;
9108;SDS011;4590;51.462;6.692;2022-11-23T06:01:48;3.90;;;1.67;;
9108;SDS011;4590;51.462;6.692;2022-11-23T06:04:13;6.73;;;1.40;;
9108;SDS011;4590;51.462;6.692;2022-11-23T06:06:38;7.03;;;1.43;;
9108;SDS011;4590;51.462;6.692;2022-11-23T06:09:03;3.23;;;1.07;;
9108;SDS011;4590;51.462;6.692;2022-11-23T06:11:29;6.77;;;1.20;;
9108;SDS011;4590;51.462;6.692;2022-11-23T06:13:55;6.45;;;1.48;;
9108;SDS011;4590;51.462;6.692;2022-11-23T06:16:20;6.10;;;1.80;;
9108;SDS011;4590;51.462;6.692;2022-11-23T06:18:45;8.87;;;1.70;;
9108;SDS011;4590;51.462;6.692;2022-11-23T06:21:11;9.47;;;1.70;;
9108;SDS011;4590;51.462;6.692;2022-11-23T06:23:36;7.03;;;1.40;;
9108;SDS011;4590;51.462;6.692;2022-11-23T06:26:02;9.03;;;1.80;;
9108;SDS011;4590;51.462;6.692;2022-11-23T06:28:27;5.10;;;1.90;;
9108;SDS011;4590;51.462;6.692;2022-11-23T06:30:53;4.10;;;1.20;;
9108;SDS011;4590;51.462;6.692;2022-11-23T06:33:19;8.05;;;2.03;;
9108;SDS011;4590;51.462;6.692;2022-11-23T06:35:54;8.27;;;2.07;;
9108;SDS011;4590;51.462;6.692;2022-11-23T06:38:20;7.97;;;1.85;;
9108;SDS011;4590;51.462;6.692;2022-11-23T06:40:46;5.40;;;1.60;;
9108;SDS011;4590;51.462;6.692;2022-11-23T06:43:11;9.57;;;2.37;;
9108;SDS011;4590;51.462;6.692;2022-11-23T06:45:36;11.07;;;3.07;;
9108;SDS011;4590;51.462;6.692;2022-11-23T06:48:02;10.10;;;2.63;;
9108;SDS011;4590;51.462;6.692;2022-11-23T06:50:27;4.83;;;2.13;;
9108;SDS011;4590;51.462;6.692;2022-11-23T06:52:53;9.90;;;2.57;;
9108;SDS011;4590;51.462;6.692;2022-11-23T06:55:19;7.63;;;2.17;;
9108;SDS011;4590;51.462;6.692;2022-11-23T06:57:45;11.15;;;3.35;;
9108;SDS011;4590;51.462;6.692;2022-11-23T07:00:10;9.43;;;2.33;;
9108;SDS011;4590;51.462;6.692;2022-11-23T07:02:36;10.68;;;3.13;;
9108;SDS011;4590;51.462;6.692;2022-11-23T07:07:36;11.52;;;2.15;;
9108;SDS011;4590;51.462;6.692;2022-11-23T07:10:01;9.47;;;2.10;;
9108;SDS011;4590;51.462;6.692;2022-11-23T07:12:27;10.67;;;2.87;;
9108;SDS011;4590;51.462;6.692;2022-11-23T07:14:52;9.37;;;3.07;;
9108;SDS011;4590;51.462;6.692;2022-11-23T07:17:17;11.70;;;2.70;;
9108;SDS011;4590;51.462;6.692;2022-11-23T07:19:43;6.23;;;2.43;;
9108;SDS011;4590;51.462;6.692;2022-11-23T07:22:08;8.07;;;1.77;;
9108;SDS011;4590;51.462;6.692;2022-11-23T07:24:33;8.60;;;2.10;;
9108;SDS011;4590;51.462;6.692;2022-11-23T07:26:59;8.03;;;1.97;;
9108;SDS011;4590;51.462;6.692;2022-11-23T07:29:24;8.07;;;2.20;;
9108;SDS011;4590;51.462;6.692;2022-11-23T07:31:49;6.60;;;1.73;;
9108;SDS011;4590;51.462;6.692;2022-11-23T07:34:14;5.60;;;1.50;;
9108;SDS011;4590;51.462;6.692;2022-11-23T07:36:40;6.27;;;1.70;;
9108;SDS011;4590;51.462;6.692;2022-11-23T07:39:05;9.90;;;1.77;;
9108;SDS011;4590;51.462;6.692;2022-11-23T07:41:31;5.97;;;1.50;;
9108;SDS011;4590;51.462;6.692;2022-11-23T07:43:56;4.53;;;1.70;;
9108;SDS011;4590;51.462;6.692;2022-11-23T07:46:21;4.57;;;1.43;;
9108;SDS011;4590;51.462;6.692;2022-11-23T07:48:47;8.87;;;2.67;;
9108;SDS011;4590;51.462;6.692;2022-11-23T07:51:12;6.87;;;1.43;;
9108;SDS011;4590;51.462;6.692;2022-11-23T07:53:37;10.13;;;2.60;;
9108;SDS011;4590;51.462;6.692;2022-11-23T07:56:03;7.07;;;1.80;;
9108;SDS011;4590;51.462;6.692;2022-11-23T07:58:28;6.13;;;1.80;;
9108;SDS011;4590;51.462;6.692;2022-11-23T08:00:53;8.97;;;2.00;;
9108;SDS011;4590;51.462;6.692;2022-11-23T08:03:19;9.00;;;1.70;;
9108;SDS011;4590;51.462;6.692;2022-11-23T08:05:44;8.00;;;1.97;;
9108;SDS011;4590;51.462;6.692;2022-11-23T08:08:10;7.03;;;2.50;;
9108;SDS011;4590;51.462;6.692;2022-11-23T08:10:35;10.43;;;2.30;;
9108;SDS011;4590;51.462;6.692;2022-11-23T08:13:02;6.17;;;2.27;;
9108;SDS011;4590;51.462;6.692;2022-11-23T08:15:29;7.50;;;2.40;;
9108;SDS011;4590;51.462;6.692;2022-11-23T08:17:58;13.38;;;2.25;;
9108;SDS011;4590;51.462;6.692;2022-11-23T08:20:25;8.07;;;2.30;;
9108;SDS011;4590;51.462;6.692;2022-11-23T08:22:51;8.57;;;2.20;;
9108;SDS011;4590;51.462;6.692;2022-11-23T08:25:20;8.05;;;2.67;;
9108;SDS011;4590;51.462;6.692;2022-11-23T08:27:46;7.43;;;1.98;;
9108;SDS011;4590;51.462;6.692;2022-11-23T08:30:12;6.73;;;1.83;;
9108;SDS011;4590;51.462;6.692;2022-11-23T08:32:38;8.20;;;1.80;;
9108;SDS011;4590;51.462;6.692;2022-11-23T08:35:03;4.57;;;1.80;;
9108;SDS011;4590;51.462;6.692;2022-11-23T08:37:29;8.43;;;1.67;;
9108;SDS011;4590;51.462;6.692;2022-11-23T08:39:54;6.53;;;1.67;;
9108;SDS011;4590;51.462;6.692;2022-11-23T08:42:19;7.60;;;1.70;;
9108;SDS011;4590;51.462;6.692;2022-11-23T08:44:45;4.87;;;1.33;;
9108;SDS011;4590;51.462;6.692;2022-11-23T08:47:10;7.73;;;1.40;;
9108;SDS011;4590;51.462;6.692;2022-11-23T08:49:36;5.67;;;1.50;;
9108;SDS011;4590;51.462;6.692;2022-11-23T08:52:01;6.67;;;1.63;;
9108;SDS011;4590;51.462;6.692;2022-11-23T08:54:26;5.40;;;1.30;;
9108;SDS011;4590;51.462;6.692;2022-11-23T08:56:52;11.37;;;1.97;;
9108;SDS011;4590;51.462;6.692;2022-11-23T08:59:17;9.87;;;1.73;;
9108;SDS011;4590;51.462;6.692;2022-11-23T09:01:43;6.60;;;1.47;;
9108;SDS011;4590;51.462;6.692;2022-11-23T09:04:09;6.75;;;1.45;;
9108;SDS011;4590;51.462;6.692;2022-11-23T09:06:34;4.00;;;1.17;;
9108;SDS011;4590;51.462;6.692;2022-11-23T09:09:00;6.07;;;1.50;;
9108;SDS011;4590;51.462;6.692;2022-11-23T09:11:25;5.90;;;1.80;;
9108;SDS011;4590;51.462;6.692;2022-11-23T09:13:51;7.93;;;1.30;;
9108;SDS011;4590;51.462;6.692;2022-11-23T09:16:16;5.93;;;1.60;;
9108;SDS011;4590;51.462;6.692;2022-11-23T09:18:42;4.80;;;1.25;;
9108;SDS011;4590;51.462;6.692;2022-11-23T09:21:07;7.50;;;1.50;;
9108;SDS011;4590;51.462;6.692;2022-11-23T09:23:33;4.50;;;1.55;;
9108;SDS011;4590;51.462;6.692;2022-11-23T09:25:59;8.67;;;1.57;;
9108;SDS011;4590;51.462;6.692;2022-11-23T09:28:25;6.88;;;1.55;;
9108;SDS011;4590;51.462;6.692;2022-11-23T09:30:52;5.35;;;1.73;;
9108;SDS011;4590;51.462;6.692;2022-11-23T09:35:43;7.70;;;1.63;;
9108;SDS011;4590;51.462;6.692;2022-11-23T09:38:09;4.83;;;1.43;;
9108;SDS011;4590;51.462;6.692;2022-11-23T09:40:38;6.83;;;1.50;;
9108;SDS011;4590;51.462;6.692;2022-11-23T09:51:21;4.38;;;1.48;;
9108;SDS011;4590;51.462;6.692;2022-11-23T09:53:49;10.05;;;1.75;;
9108;SDS011;4590;51.462;6.692;2022-11-23T09:56:19;6.43;;;1.73;;
9108;SDS011;4590;51.462;6.692;2022-11-23T09:58:47;8.85;;;1.55;;
9108;SDS011;4590;51.462;6.692;2022-11-23T10:01:18;7.40;;;2.15;;
9108;SDS011;4590;51.462;6.692;2022-11-23T10:03:44;7.18;;;2.08;;
9108;SDS011;4590;51.462;6.692;2022-11-23T10:06:17;7.35;;;1.73;;
9108;SDS011;4590;51.462;6.692;2022-11-23T10:15:02;8.10;;;1.80;;
9108;SDS011;4590;51.462;6.692;2022-11-23T10:23:03;9.18;;;2.53;;
9108;SDS011;4590;51.462;6.692;2022-11-23T10:25:38;5.88;;;1.77;;
9108;SDS011;4590;51.462;6.692;2022-11-23T10:28:12;5.88;;;1.67;;
9108;SDS011;4590;51.462;6.692;2022-11-23T10:30:40;7.72;;;2.83;;
9108;SDS011;4590;51.462;6.692;2022-11-23T10:33:13;5.70;;;2.27;;
9108;SDS011;4590;51.462;6.692;2022-11-23T10:35:48;6.32;;;1.80;;
9108;SDS011;4590;51.462;6.692;2022-11-23T10:38:15;6.20;;;1.80;;
9108;SDS011;4590;51.462;6.692;2022-11-23T10:40:43;7.53;;;2.15;;
9108;SDS011;4590;51.462;6.692;2022-11-23T10:43:20;10.40;;;2.00;;
9108;SDS011;4590;51.462;6.692;2022-11-23T10:45:48;6.05;;;2.08;;
9108;SDS011;4590;51.462;6.692;2022-11-23T10:48:32;7.47;;;3.00;;
9108;SDS011;4590;51.462;6.692;2022-11-23T10:53:59;6.07;;;1.60;;
9108;SDS011;4590;51.462;6.692;2022-11-23T10:56:46;4.00;;;1.40;;
9108;SDS011;4590;51.462;6.692;2022-11-23T10:59:24;7.63;;;1.60;;
9108;SDS011;4590;51.462;6.692;2022-11-23T11:02:00;5.65;;;1.50;;
9108;SDS011;4590;51.462;6.692;2022-11-23T11:04:25;7.47;;;1.88;;
9108;SDS011;4590;51.462;6.692;2022-11-23T11:06:51;7.68;;;1.52;;
9108;SDS011;4590;51.462;6.692;2022-11-23T11:09:17;7.63;;;1.93;;
9108;SDS011;4590;51.462;6.692;2022-11-23T11:11:44;7.05;;;1.48;;
9108;SDS011;4590;51.462;6.692;2022-11-23T11:14:18;5.97;;;1.48;;
9108;SDS011;4590;51.462;6.692;2022-11-23T11:16:51;3.88;;;1.17;;
9108;SDS011;4590;51.462;6.692;2022-11-23T11:19:28;4.38;;;1.10;;
9108;SDS011;4590;51.462;6.692;2022-11-23T11:21:56;5.90;;;1.48;;
9108;SDS011;4590;51.462;6.692;2022-11-23T11:25:05;6.45;;;1.40;;
9108;SDS011;4590;51.462;6.692;2022-11-23T11:27:13;6.15;;;1.30;;
9108;SDS011;4590;51.462;6.692;2022-11-23T11:34:40;6.63;;;1.27;;
9108;SDS011;4590;51.462;6.692;2022-11-23T11:37:23;3.88;;;1.60;;
9108;SDS011;4590;51.462;6.692;2022-11-23T11:39:52;5.47;;;1.20;;
9108;SDS011;4590;51.462;6.692;2022-11-23T11:42:26;5.43;;;1.65;;
9108;SDS011;4590;51.462;6.692;2022-11-23T11:45:23;4.75;;;1.27;;
9108;SDS011;4590;51.462;6.692;2022-11-23T11:50:30;6.82;;;1.20;;
9108;SDS011;4590;51.462;6.692;2022-11-23T11:53:10;6.10;;;1.50;;
9108;SDS011;4590;51.462;6.692;2022-11-23T11:55:49;5.28;;;1.35;;
9108;SDS011;4590;51.462;6.692;2022-11-23T11:58:18;6.60;;;1.38;;
9108;SDS011;4590;51.462;6.692;2022-11-23T12:00:47;4.57;;;1.08;;
9108;SDS011;4590;51.462;6.692;2022-11-23T12:06:12;7.38;;;1.23;;
9108;SDS011;4590;51.462;6.692;2022-11-23T12:11:18;6.25;;;1.48;;
9108;SDS011;4590;51.462;6.692;2022-11-23T12:13:44;6.23;;;1.50;;
9108;SDS011;4590;51.462;6.692;2022-11-23T12:16:15;8.18;;;2.40;;
9108;SDS011;4590;51.462;6.692;2022-11-23T12:24:15;6.07;;;1.30;;
9108;SDS011;4590;51.462;6.692;2022-11-23T12:31:53;9.15;;;1.25;;
9108;SDS011;4590;51.462;6.692;2022-11-23T12:40:22;4.05;;;1.00;;
9108;SDS011;4590;51.462;6.692;2022-11-23T12:43:04;6.68;;;1.20;;
9108;SDS011;4590;51.462;6.692;2022-11-23T12:45:37;6.25;;;1.85;;
9108;SDS011;4590;51.462;6.692;2022-11-23T12:56:50;3.80;;;1.40;;
9108;SDS011;4590;51.462;6.692;2022-11-23T12:59:41;3.28;;;1.05;;
9108;SDS011;4590;51.462;6.692;2022-11-23T13:15:39;5.35;;;1.17;;
9108;SDS011;4590;51.462;6.692;2022-11-23T13:24:26;3.33;;;1.10;;
9108;SDS011;4590;51.462;6.692;2022-11-23T13:27:27;5.07;;;1.10;;
9108;SDS011;4590;51.462;6.692;2022-11-23T13:40:23;3.78;;;1.25;;
9108;SDS011;4590;51.462;6.692;2022-11-23T13:42:50;4.15;;;1.38;;
9108;SDS011;4590;51.462;6.692;2022-11-23T13:50:56;5.72;;;1.50;;
9108;SDS011;4590;51.462;6.692;2022-11-23T13:53:29;4.65;;;1.48;;
9108;SDS011;4590;51.462;6.692;2022-11-23T13:56:00;4.68;;;1.20;;
9108;SDS011;4590;51.462;6.692;2022-11-23T14:01:56;3.35;;;1.00;;
9108;SDS011;4590;51.462;6.692;2022-11-23T14:04:34;4.05;;;1.05;;
9108;SDS011;4590;51.462;6.692;2022-11-23T14:09:59;9.63;;;1.88;;
9108;SDS011;4590;51.462;6.692;2022-11-23T14:15:05;4.15;;;1.27;;
9108;SDS011;4590;51.462;6.692;2022-11-23T14:17:49;4.22;;;1.50;;
9108;SDS011;4590;51.462;6.692;2022-11-23T14:20:54;6.20;;;1.40;;
9108;SDS011;4590;51.462;6.692;2022-11-23T14:23:46;4.72;;;1.50;;
9108;SDS011;4590;51.462;6.692;2022-11-23T14:26:45;4.80;;;1.13;;
9108;SDS011;4590;51.462;6.692;2022-11-23T14:29:31;4.78;;;1.30;;
9108;SDS011;4590;51.462;6.692;2022-11-23T14:41:06;4.45;;;1.17;;
9108;SDS011;4590;51.462;6.692;2022-11-23T14:43:35;5.40;;;1.45;;
9108;SDS011;4590;51.462;6.692;2022-11-23T14:46:04;2.38;;;1.02;;
9108;SDS011;4590;51.462;6.692;2022-11-23T14:48:31;5.72;;;1.13;;
9108;SDS011;4590;51.462;6.692;2022-11-23T14:51:03;6.38;;;1.30;;
9108;SDS011;4590;51.462;6.692;2022-11-23T14:53:35;4.28;;;1.10;;
9108;SDS011;4590;51.462;6.692;2022-11-23T14:56:04;4.07;;;1.30;;
9108;SDS011;4590;51.462;6.692;2022-11-23T14:58:30;2.87;;;0.90;;
9108;SDS011;4590;51.462;6.692;2022-11-23T15:00:57;3.10;;;1.40;;
9108;SDS011;4590;51.462;6.692;2022-11-23T15:03:26;6.13;;;1.50;;
9108;SDS011;4590;51.462;6.692;2022-11-23T15:05:57;6.10;;;2.63;;
9108;SDS011;4590;51.462;6.692;2022-11-23T15:08:56;6.85;;;2.25;;
9108;SDS011;4590;51.462;6.692;2022-11-23T15:11:43;3.75;;;1.50;;
9108;SDS011;4590;51.462;6.692;2022-11-23T15:14:19;4.50;;;1.77;;
9108;SDS011;4590;51.462;6.692;2022-11-23T15:16:49;4.63;;;1.70;;
9108;SDS011;4590;51.462;6.692;2022-11-23T15:19:27;5.20;;;1.93;;
9108;SDS011;4590;51.462;6.692;2022-11-23T15:21:54;6.13;;;1.77;;
9108;SDS011;4590;51.462;6.692;2022-11-23T15:24:21;3.42;;;1.45;;
9108;SDS011;4590;51.462;6.692;2022-11-23T15:26:48;6.50;;;2.38;;
9108;SDS011;4590;51.462;6.692;2022-11-23T15:32:25;5.87;;;2.80;;
9108;SDS011;4590;51.462;6.692;2022-11-23T15:34:56;6.03;;;2.22;;
9108;SDS011;4590;51.462;6.692;2022-11-23T15:37:24;7.35;;;3.03;;
9108;SDS011;4590;51.462;6.692;2022-11-23T15:39:51;7.60;;;2.90;;
9108;SDS011;4590;51.462;6.692;2022-11-23T15:42:19;6.30;;;2.35;;
9108;SDS011;4590;51.462;6.692;2022-11-23T15:44:46;6.30;;;2.83;;
9108;SDS011;4590;51.462;6.692;2022-11-23T15:49:57;5.63;;;2.50;;
9108;SDS011;4590;51.462;6.692;2022-11-23T15:52:25;8.27;;;2.33;;
9108;SDS011;4590;51.462;6.692;2022-11-23T15:54:52;7.60;;;2.75;;
9108;SDS011;4590;51.462;6.692;2022-11-23T15:57:18;4.13;;;1.87;;
9108;SDS011;4590;51.462;6.692;2022-11-23T15:59:58;6.68;;;2.80;;
9108;SDS011;4590;51.462;6.692;2022-11-23T16:02:27;4.50;;;2.85;;
9108;SDS011;4590;51.462;6.692;2022-11-23T16:07:56;7.20;;;2.95;;
9108;SDS011;4590;51.462;6.692;2022-11-23T16:12:57;4.43;;;1.88;;
9108;SDS011;4590;51.462;6.692;2022-11-23T16:18:01;6.57;;;2.83;;
9108;SDS011;4590;51.462;6.692;2022-11-23T16:20:26;6.10;;;2.75;;
9108;SDS011;4590;51.462;6.692;2022-11-23T16:22:53;5.53;;;3.05;;
9108;SDS011;4590;51.462;6.692;2022-11-23T16:28:03;6.88;;;2.55;;
9108;SDS011;4590;51.462;6.692;2022-11-23T16:30:40;11.43;;;5.80;;
9108;SDS011;4590;51.462;6.692;2022-11-23T16:33:14;7.10;;;2.92;;
9108;SDS011;4590;51.462;6.692;2022-11-23T16:35:40;10.18;;;6.40;;
9108;SDS011;4590;51.462;6.692;2022-11-23T16:38:06;7.93;;;4.07;;
9108;SDS011;4590;51.462;6.692;2022-11-23T16:40:31;5.30;;;2.87;;
9108;SDS011;4590;51.462;6.692;2022-11-23T16:42:57;6.55;;;3.38;;
9108;SDS011;4590;51.462;6.692;2022-11-23T16:45:22;7.50;;;3.63;;
9108;SDS011;4590;51.462;6.692;2022-11-23T16:47:51;5.70;;;3.13;;
9108;SDS011;4590;51.462;6.692;2022-11-23T16:50:25;6.38;;;2.72;;
9108;SDS011;4590;51.462;6.692;2022-11-23T16:52:52;6.65;;;2.70;;
9108;SDS011;4590;51.462;6.692;2022-11-23T16:55:18;4.93;;;2.30;;
9108;SDS011;4590;51.462;6.692;2022-11-23T16:57:43;7.93;;;3.53;;
9108;SDS011;4590;51.462;6.692;2022-11-23T17:00:13;8.30;;;2.63;;
9108;SDS011;4590;51.462;6.692;2022-11-23T17:02:40;7.95;;;2.92;;
9108;SDS011;4590;51.462;6.692;2022-11-23T17:05:12;9.03;;;3.40;;
9108;SDS011;4590;51.462;6.692;2022-11-23T17:07:41;6.35;;;3.63;;
9108;SDS011;4590;51.462;6.692;2022-11-23T17:10:07;5.70;;;2.50;;
9108;SDS011;4590;51.462;6.692;2022-11-23T17:12:33;6.82;;;2.20;;
9108;SDS011;4590;51.462;6.692;2022-11-23T17:15:00;6.35;;;2.60;;
9108;SDS011;4590;51.462;6.692;2022-11-23T17:17:27;8.35;;;2.90;;
9108;SDS011;4590;51.462;6.692;2022-11-23T17:19:54;9.07;;;3.38;;
9108;SDS011;4590;51.462;6.692;2022-11-23T17:22:19;10.10;;;3.33;;
9108;SDS011;4590;51.462;6.692;2022-11-23T17:24:44;11.70;;;4.00;;
9108;SDS011;4590;51.462;6.692;2022-11-23T17:27:12;9.63;;;3.83;;
9108;SDS011;4590;51.462;6.692;2022-11-23T17:29:40;10.05;;;3.30;;
9108;SDS011;4590;51.462;6.692;2022-11-23T17:32:08;6.38;;;2.65;;
9108;SDS011;4590;51.462;6.692;2022-11-23T17:34:35;9.00;;;4.38;;
9108;SDS011;4590;51.462;6.692;2022-11-23T17:37:00;8.67;;;3.47;;
9108;SDS011;4590;51.462;6.692;2022-11-23T17:39:26;7.40;;;4.37;;
9108;SDS011;4590;51.462;6.692;2022-11-23T17:41:52;13.05;;;4.95;;
9108;SDS011;4590;51.462;6.692;2022-11-23T17:44:17;6.80;;;3.87;;
9108;SDS011;4590;51.462;6.692;2022-11-23T17:46:43;8.57;;;3.70;;
9108;SDS011;4590;51.462;6.692;2022-11-23T17:49:13;8.23;;;3.45;;